Terminal Aerodrome Forecast
Issued by NWS Boston, MA

Home | Current Version | Previous Version | Text Only | Print | Product List | Glossary On
Versions: 1 2 3 4 5 6 7 8 9 10 11 12 13 14 15 16 17 18 19 20 21 22 23 24
000
FTUS41 KBOX 251444 AAA
TAFBDL
TAF AMD
KBDL 251444Z 2515/2618 VRB03KT 2SM -RA BR OVC008
     FM251800 10007KT 1SM RA BR OVC005
     FM252200 09006KT 6SM -SHRA BR OVC008
     FM260800 VRB03KT 3SM BR OVC008
     FM261000 VRB03KT 3SM BR OVC010
     FM261500 29009KT P6SM BKN035
     FM261600 28009KT P6SM SCT045=

USA.gov is the U.S. government's official web portal to all federal, state and local government web resources and services.